sensor_id;sensor_type;location;lat;lon;timestamp;pressure;altitude;pressure_sealevel;temperature;humidity
10921;BME280;5513;50.580;8.818;2023-08-07T00:00:57;98659.94;;;13.25;100.00
10921;BME280;5513;50.580;8.818;2023-08-07T00:03:44;98669.19;;;13.31;100.00
10921;BME280;5513;50.580;8.818;2023-08-07T00:06:32;98672.84;;;13.30;100.00
10921;BME280;5513;50.580;8.818;2023-08-07T00:09:19;98665.84;;;13.29;100.00
10921;BME280;5513;50.580;8.818;2023-08-07T00:12:06;98670.09;;;13.20;100.00
10921;BME280;5513;50.580;8.818;2023-08-07T00:14:55;98675.28;;;13.22;100.00
10921;BME280;5513;50.580;8.818;2023-08-07T00:17:43;98664.16;;;13.16;100.00
10921;BME280;5513;50.580;8.818;2023-08-07T00:20:30;98673.81;;;13.17;100.00
10921;BME280;5513;50.580;8.818;2023-08-07T00:23:17;98673.97;;;13.16;100.00
10921;BME280;5513;50.580;8.818;2023-08-07T00:26:04;98676.50;;;13.17;100.00
10921;BME280;5513;50.580;8.818;2023-08-07T00:28:51;98686.41;;;13.15;100.00
10921;BME280;5513;50.580;8.818;2023-08-07T00:31:38;98688.81;;;13.18;100.00
10921;BME280;5513;50.580;8.818;2023-08-07T00:34:26;98682.44;;;13.10;100.00
10921;BME280;5513;50.580;8.818;2023-08-07T00:37:13;98692.34;;;13.08;100.00
10921;BME280;5513;50.580;8.818;2023-08-07T00:40:00;98685.94;;;13.10;100.00
10921;BME280;5513;50.580;8.818;2023-08-07T00:42:47;98697.31;;;13.12;100.00
10921;BME280;5513;50.580;8.818;2023-08-07T00:45:36;98695.13;;;13.06;100.00
10921;BME280;5513;50.580;8.818;2023-08-07T00:48:24;98690.53;;;13.08;100.00
10921;BME280;5513;50.580;8.818;2023-08-07T00:51:12;98703.56;;;13.11;100.00
10921;BME280;5513;50.580;8.818;2023-08-07T00:54:00;98700.91;;;13.11;100.00
10921;BME280;5513;50.580;8.818;2023-08-07T00:56:50;98710.13;;;13.07;100.00
10921;BME280;5513;50.580;8.818;2023-08-07T00:59:38;98714.09;;;13.02;100.00
10921;BME280;5513;50.580;8.818;2023-08-07T01:02:26;98708.22;;;12.98;100.00
10921;BME280;5513;50.580;8.818;2023-08-07T01:05:13;98710.88;;;12.98;100.00
10921;BME280;5513;50.580;8.818;2023-08-07T01:08:01;98721.38;;;13.00;100.00
10921;BME280;5513;50.580;8.818;2023-08-07T01:11:01;98713.41;;;13.00;100.00
10921;BME280;5513;50.580;8.818;2023-08-07T01:14:00;98710.88;;;12.98;100.00
10921;BME280;5513;50.580;8.818;2023-08-07T01:16:52;98722.72;;;12.94;100.00
10921;BME280;5513;50.580;8.818;2023-08-07T01:19:42;98723.31;;;12.98;100.00
10921;BME280;5513;50.580;8.818;2023-08-07T01:22:31;98726.22;;;12.95;100.00
10921;BME280;5513;50.580;8.818;2023-08-07T01:25:18;98722.72;;;12.94;100.00
10921;BME280;5513;50.580;8.818;2023-08-07T01:28:11;98728.63;;;12.98;100.00
10921;BME280;5513;50.580;8.818;2023-08-07T01:31:05;98729.97;;;12.92;100.00
10921;BME280;5513;50.580;8.818;2023-08-07T01:33:57;98727.44;;;12.90;100.00
10921;BME280;5513;50.580;8.818;2023-08-07T01:36:46;98724.53;;;12.82;100.00
10921;BME280;5513;50.580;8.818;2023-08-07T01:39:36;98725.63;;;12.91;100.00
10921;BME280;5513;50.580;8.818;2023-08-07T01:42:24;98736.75;;;12.96;100.00
10921;BME280;5513;50.580;8.818;2023-08-07T01:45:11;98731.56;;;12.95;100.00
10921;BME280;5513;50.580;8.818;2023-08-07T01:47:59;98733.00;;;12.87;100.00
10921;BME280;5513;50.580;8.818;2023-08-07T01:50:46;98741.69;;;12.89;100.00
10921;BME280;5513;50.580;8.818;2023-08-07T01:53:33;98736.75;;;12.85;100.00
10921;BME280;5513;50.580;8.818;2023-08-07T01:56:21;98739.41;;;12.85;100.00
10921;BME280;5513;50.580;8.818;2023-08-07T01:59:08;98736.13;;;12.81;100.00
10921;BME280;5513;50.580;8.818;2023-08-07T02:01:55;98735.69;;;12.76;100.00
10921;BME280;5513;50.580;8.818;2023-08-07T02:04:42;98735.69;;;12.76;100.00
10921;BME280;5513;50.580;8.818;2023-08-07T02:07:29;98741.34;;;12.72;100.00
10921;BME280;5513;50.580;8.818;2023-08-07T02:10:16;98734.97;;;12.74;100.00
10921;BME280;5513;50.580;8.818;2023-08-07T02:13:04;98739.91;;;12.68;100.00
10921;BME280;5513;50.580;8.818;2023-08-07T02:15:51;98741.47;;;12.70;100.00
10921;BME280;5513;50.580;8.818;2023-08-07T02:18:37;98743.41;;;12.68;100.00
10921;BME280;5513;50.580;8.818;2023-08-07T02:21:24;98748.22;;;12.63;100.00
10921;BME280;5513;50.580;8.818;2023-08-07T02:24:11;98740.03;;;12.66;100.00
10921;BME280;5513;50.580;8.818;2023-08-07T02:26:59;98747.38;;;12.63;100.00
10921;BME280;5513;50.580;8.818;2023-08-07T02:29:47;98752.56;;;12.64;100.00
10921;BME280;5513;50.580;8.818;2023-08-07T02:32:36;98744.50;;;12.66;100.00
10921;BME280;5513;50.580;8.818;2023-08-07T02:35:23;98748.13;;;12.65;100.00
10921;BME280;5513;50.580;8.818;2023-08-07T02:38:10;98749.56;;;12.69;100.00
10921;BME280;5513;50.580;8.818;2023-08-07T02:40:56;98744.25;;;12.69;100.00
10921;BME280;5513;50.580;8.818;2023-08-07T02:43:44;98751.63;;;12.65;100.00
10921;BME280;5513;50.580;8.818;2023-08-07T02:46:32;98745.22;;;12.68;100.00
10921;BME280;5513;50.580;8.818;2023-08-07T02:49:21;98748.72;;;12.68;100.00
10921;BME280;5513;50.580;8.818;2023-08-07T02:52:08;98746.31;;;12.65;100.00
10921;BME280;5513;50.580;8.818;2023-08-07T02:54:55;98750.16;;;12.72;100.00
10921;BME280;5513;50.580;8.818;2023-08-07T02:57:42;98745.09;;;12.69;100.00
10921;BME280;5513;50.580;8.818;2023-08-07T03:00:29;98753.53;;;12.63;100.00
10921;BME280;5513;50.580;8.818;2023-08-07T03:03:17;98740.25;;;12.63;100.00
10921;BME280;5513;50.580;8.818;2023-08-07T03:06:04;98748.72;;;12.57;100.00
10921;BME280;5513;50.580;8.818;2023-08-07T03:08:51;98750.03;;;12.63;100.00
10921;BME280;5513;50.580;8.818;2023-08-07T03:11:38;98744.38;;;12.67;100.00
10921;BME280;5513;50.580;8.818;2023-08-07T03:14:25;98740.75;;;12.57;100.00
10921;BME280;5513;50.580;8.818;2023-08-07T03:17:12;98741.09;;;12.64;100.00
10921;BME280;5513;50.580;8.818;2023-08-07T03:20:00;98745.69;;;12.61;100.00
10921;BME280;5513;50.580;8.818;2023-08-07T03:22:49;98735.66;;;12.54;100.00
10921;BME280;5513;50.580;8.818;2023-08-07T03:25:36;98741.47;;;12.59;100.00
10921;BME280;5513;50.580;8.818;2023-08-07T03:28:23;98743.75;;;12.52;100.00
10921;BME280;5513;50.580;8.818;2023-08-07T03:31:10;98749.69;;;12.56;100.00
10921;BME280;5513;50.580;8.818;2023-08-07T03:33:57;98752.94;;;12.59;100.00
10921;BME280;5513;50.580;8.818;2023-08-07T03:36:46;98749.06;;;12.64;100.00
10921;BME280;5513;50.580;8.818;2023-08-07T03:39:33;98753.78;;;12.60;100.00
10921;BME280;5513;50.580;8.818;2023-08-07T03:42:20;98749.31;;;12.60;100.00
10921;BME280;5513;50.580;8.818;2023-08-07T03:45:07;98765.25;;;12.60;100.00
10921;BME280;5513;50.580;8.818;2023-08-07T03:47:55;98768.88;;;12.59;100.00
10921;BME280;5513;50.580;8.818;2023-08-07T03:50:42;98758.25;;;12.59;100.00
10921;BME280;5513;50.580;8.818;2023-08-07T03:53:31;98765.00;;;12.64;100.00
10921;BME280;5513;50.580;8.818;2023-08-07T03:56:18;98758.13;;;12.61;100.00
10921;BME280;5513;50.580;8.818;2023-08-07T03:59:05;98755.22;;;12.64;100.00
10921;BME280;5513;50.580;8.818;2023-08-07T04:01:52;98759.72;;;12.75;100.00
10921;BME280;5513;50.580;8.818;2023-08-07T04:04:39;98758.00;;;12.74;100.00
10921;BME280;5513;50.580;8.818;2023-08-07T04:07:26;98754.88;;;12.69;100.00
10921;BME280;5513;50.580;8.818;2023-08-07T04:10:14;98756.44;;;12.71;100.00
10921;BME280;5513;50.580;8.818;2023-08-07T04:13:02;98753.06;;;12.69;100.00
10921;BME280;5513;50.580;8.818;2023-08-07T04:15:49;98752.94;;;12.71;100.00
10921;BME280;5513;50.580;8.818;2023-08-07T04:18:36;98751.84;;;12.73;100.00
10921;BME280;5513;50.580;8.818;2023-08-07T04:21:23;98751.38;;;12.68;100.00
10921;BME280;5513;50.580;8.818;2023-08-07T04:24:10;98749.69;;;12.67;100.00
10921;BME280;5513;50.580;8.818;2023-08-07T04:26:58;98750.41;;;12.69;100.00
10921;BME280;5513;50.580;8.818;2023-08-07T04:29:45;98753.06;;;12.69;100.00
10921;BME280;5513;50.580;8.818;2023-08-07T04:32:33;98761.28;;;12.66;100.00
10921;BME280;5513;50.580;8.818;2023-08-07T04:35:19;98759.59;;;12.65;100.00
10921;BME280;5513;50.580;8.818;2023-08-07T04:38:06;98749.69;;;12.67;100.00
10921;BME280;5513;50.580;8.818;2023-08-07T04:40:53;98749.44;;;12.70;100.00
10921;BME280;5513;50.580;8.818;2023-08-07T04:43:41;98753.91;;;12.70;100.00
10921;BME280;5513;50.580;8.818;2023-08-07T04:46:29;98759.81;;;12.73;100.00
10921;BME280;5513;50.580;8.818;2023-08-07T04:49:16;98760.78;;;12.72;100.00
10921;BME280;5513;50.580;8.818;2023-08-07T04:52:03;98762.38;;;12.75;100.00
10921;BME280;5513;50.580;8.818;2023-08-07T04:55:08;98763.09;;;12.77;100.00
10921;BME280;5513;50.580;8.818;2023-08-07T04:57:55;98767.31;;;12.79;100.00
10921;BME280;5513;50.580;8.818;2023-08-07T05:00:44;98771.06;;;12.77;100.00
10921;BME280;5513;50.580;8.818;2023-08-07T05:03:30;98761.88;;;12.81;100.00
10921;BME280;5513;50.580;8.818;2023-08-07T05:06:17;98763.78;;;12.90;100.00
10921;BME280;5513;50.580;8.818;2023-08-07T05:09:04;98765.63;;;12.89;100.00
10921;BME280;5513;50.580;8.818;2023-08-07T05:11:52;98761.75;;;12.94;100.00
10921;BME280;5513;50.580;8.818;2023-08-07T05:14:39;98761.00;;;12.92;100.00
10921;BME280;5513;50.580;8.818;2023-08-07T05:17:28;98752.81;;;12.95;100.00
10921;BME280;5513;50.580;8.818;2023-08-07T05:20:14;98756.19;;;12.97;100.00
10921;BME280;5513;50.580;8.818;2023-08-07T05:23:01;98751.00;;;12.95;100.00
10921;BME280;5513;50.580;8.818;2023-08-07T05:25:48;98750.88;;;12.97;100.00
10921;BME280;5513;50.580;8.818;2023-08-07T05:28:35;98760.91;;;13.04;100.00
10921;BME280;5513;50.580;8.818;2023-08-07T05:31:22;98757.25;;;13.05;100.00
10921;BME280;5513;50.580;8.818;2023-08-07T05:34:12;98765.81;;;13.09;100.00
10921;BME280;5513;50.580;8.818;2023-08-07T05:36:58;98757.38;;;13.15;100.00
10921;BME280;5513;50.580;8.818;2023-08-07T05:39:48;98760.38;;;13.10;100.00
10921;BME280;5513;50.580;8.818;2023-08-07T05:42:35;98750.63;;;13.22;100.00
10921;BME280;5513;50.580;8.818;2023-08-07T05:45:22;98750.72;;;13.21;100.00
10921;BME280;5513;50.580;8.818;2023-08-07T05:48:09;98755.69;;;13.25;100.00
10921;BME280;5513;50.580;8.818;2023-08-07T05:50:57;98753.97;;;13.35;100.00
10921;BME280;5513;50.580;8.818;2023-08-07T05:53:44;98756.88;;;13.32;100.00
10921;BME280;5513;50.580;8.818;2023-08-07T05:56:31;98756.63;;;13.35;100.00
10921;BME280;5513;50.580;8.818;2023-08-07T05:59:17;98753.38;;;13.32;100.00
10921;BME280;5513;50.580;8.818;2023-08-07T06:02:05;98750.69;;;13.43;100.00
10921;BME280;5513;50.580;8.818;2023-08-07T06:04:51;98761.91;;;13.46;100.00
10921;BME280;5513;50.580;8.818;2023-08-07T06:07:40;98742.31;;;13.48;100.00
10921;BME280;5513;50.580;8.818;2023-08-07T06:10:26;98752.94;;;13.48;100.00
10921;BME280;5513;50.580;8.818;2023-08-07T06:13:13;98759.66;;;13.63;100.00
10921;BME280;5513;50.580;8.818;2023-08-07T06:16:15;98762.97;;;13.55;100.00
10921;BME280;5513;50.580;8.818;2023-08-07T06:19:01;98764.38;;;13.59;100.00
10921;BME280;5513;50.580;8.818;2023-08-07T06:22:01;98765.00;;;13.63;100.00
10921;BME280;5513;50.580;8.818;2023-08-07T06:24:49;98776.78;;;13.70;100.00
10921;BME280;5513;50.580;8.818;2023-08-07T06:27:36;98770.41;;;13.72;100.00
10921;BME280;5513;50.580;8.818;2023-08-07T06:30:23;98775.09;;;13.80;100.00
10921;BME280;5513;50.580;8.818;2023-08-07T06:33:10;98764.94;;;13.74;100.00
10921;BME280;5513;50.580;8.818;2023-08-07T06:35:58;98775.84;;;13.71;100.00
10921;BME280;5513;50.580;8.818;2023-08-07T06:38:45;98772.75;;;13.87;100.00
10921;BME280;5513;50.580;8.818;2023-08-07T06:41:33;98775.59;;;13.95;100.00
10921;BME280;5513;50.580;8.818;2023-08-07T06:44:20;98770.41;;;13.93;100.00
10921;BME280;5513;50.580;8.818;2023-08-07T06:47:07;98768.72;;;14.13;100.00
10921;BME280;5513;50.580;8.818;2023-08-07T06:49:55;98766.72;;;14.06;100.00
10921;BME280;5513;50.580;8.818;2023-08-07T06:52:42;98773.28;;;14.22;100.00
10921;BME280;5513;50.580;8.818;2023-08-07T06:55:29;98770.47;;;14.24;100.00
10921;BME280;5513;50.580;8.818;2023-08-07T06:58:17;98773.41;;;14.42;100.00
10921;BME280;5513;50.580;8.818;2023-08-07T07:01:04;98771.00;;;14.39;100.00
10921;BME280;5513;50.580;8.818;2023-08-07T07:03:51;98768.06;;;14.42;100.00
10921;BME280;5513;50.580;8.818;2023-08-07T07:06:38;98768.91;;;14.42;100.00
10921;BME280;5513;50.580;8.818;2023-08-07T07:09:25;98779.44;;;14.44;100.00
10921;BME280;5513;50.580;8.818;2023-08-07T07:12:14;98784.00;;;14.32;100.00
10921;BME280;5513;50.580;8.818;2023-08-07T07:15:02;98782.50;;;14.18;100.00
10921;BME280;5513;50.580;8.818;2023-08-07T07:17:49;98794.59;;;14.22;100.00
10921;BME280;5513;50.580;8.818;2023-08-07T07:20:36;98794.38;;;14.14;100.00
10921;BME280;5513;50.580;8.818;2023-08-07T07:23:23;98798.09;;;14.02;100.00
10921;BME280;5513;50.580;8.818;2023-08-07T07:26:10;98806.88;;;14.14;100.00
10921;BME280;5513;50.580;8.818;2023-08-07T07:28:57;98802.88;;;14.08;100.00
10921;BME280;5513;50.580;8.818;2023-08-07T07:31:45;98814.13;;;13.91;100.00
10921;BME280;5513;50.580;8.818;2023-08-07T07:34:32;98828.78;;;13.85;100.00
10921;BME280;5513;50.580;8.818;2023-08-07T07:37:19;98823.94;;;13.90;100.00
10921;BME280;5513;50.580;8.818;2023-08-07T07:40:08;98832.03;;;13.89;100.00
10921;BME280;5513;50.580;8.818;2023-08-07T07:42:55;98833.22;;;13.96;100.00
10921;BME280;5513;50.580;8.818;2023-08-07T07:45:43;98830.69;;;13.94;100.00
10921;BME280;5513;50.580;8.818;2023-08-07T07:48:31;98836.78;;;14.06;100.00
10921;BME280;5513;50.580;8.818;2023-08-07T07:51:18;98843.38;;;14.02;100.00
10921;BME280;5513;50.580;8.818;2023-08-07T07:54:05;98844.84;;;13.95;100.00
10921;BME280;5513;50.580;8.818;2023-08-07T07:56:59;98853.16;;;14.01;100.00
10921;BME280;5513;50.580;8.818;2023-08-07T07:59:46;98850.50;;;14.01;100.00
10921;BME280;5513;50.580;8.818;2023-08-07T08:02:34;98851.59;;;13.99;100.00
10921;BME280;5513;50.580;8.818;2023-08-07T08:05:22;98860.31;;;14.01;100.00
10921;BME280;5513;50.580;8.818;2023-08-07T08:08:09;98863.63;;;14.14;100.00
10921;BME280;5513;50.580;8.818;2023-08-07T08:10:56;98867.28;;;14.13;100.00
10921;BME280;5513;50.580;8.818;2023-08-07T08:13:46;98868.66;;;13.96;100.00
10921;BME280;5513;50.580;8.818;2023-08-07T08:16:34;98881.84;;;13.98;100.00
10921;BME280;5513;50.580;8.818;2023-08-07T08:19:21;98885.13;;;14.01;100.00
10921;BME280;5513;50.580;8.818;2023-08-07T08:22:09;98887.66;;;14.03;100.00
10921;BME280;5513;50.580;8.818;2023-08-07T08:24:56;98900.41;;;13.88;100.00
10921;BME280;5513;50.580;8.818;2023-08-07T08:27:43;98896.59;;;13.59;100.00
10921;BME280;5513;50.580;8.818;2023-08-07T08:30:31;98907.25;;;13.48;100.00
10921;BME280;5513;50.580;8.818;2023-08-07T08:33:18;98908.34;;;13.45;100.00
10921;BME280;5513;50.580;8.818;2023-08-07T08:36:05;98911.16;;;13.32;100.00
10921;BME280;5513;50.580;8.818;2023-08-07T08:38:53;98918.28;;;13.32;100.00
10921;BME280;5513;50.580;8.818;2023-08-07T08:41:43;98920.19;;;13.41;100.00
10921;BME280;5513;50.580;8.818;2023-08-07T08:44:36;98925.53;;;13.41;100.00
10921;BME280;5513;50.580;8.818;2023-08-07T08:47:26;98932.06;;;13.48;100.00
10921;BME280;5513;50.580;8.818;2023-08-07T08:50:14;98932.53;;;13.53;100.00
10921;BME280;5513;50.580;8.818;2023-08-07T08:53:02;98937.59;;;13.67;100.00
10921;BME280;5513;50.580;8.818;2023-08-07T08:55:52;98945.81;;;13.75;100.00
10921;BME280;5513;50.580;8.818;2023-08-07T08:58:39;98943.03;;;13.77;100.00
10921;BME280;5513;50.580;8.818;2023-08-07T09:01:27;98944.59;;;13.80;100.00
10921;BME280;5513;50.580;8.818;2023-08-07T09:04:14;98941.09;;;13.90;100.00
10921;BME280;5513;50.580;8.818;2023-08-07T09:07:01;98949.31;;;13.87;100.00
10921;BME280;5513;50.580;8.818;2023-08-07T09:09:48;98941.09;;;13.90;100.00
10921;BME280;5513;50.580;8.818;2023-08-07T09:12:40;98947.59;;;13.97;100.00
10921;BME280;5513;50.580;8.818;2023-08-07T09:15:29;98949.78;;;13.92;100.00
10921;BME280;5513;50.580;8.818;2023-08-07T09:18:17;98951.34;;;13.95;100.00
10921;BME280;5513;50.580;8.818;2023-08-07T09:21:04;98948.97;;;13.81;100.00
10921;BME280;5513;50.580;8.818;2023-08-07T09:23:51;98956.31;;;13.88;100.00
10921;BME280;5513;50.580;8.818;2023-08-07T09:26:41;98960.44;;;13.92;100.00
10921;BME280;5513;50.580;8.818;2023-08-07T09:29:31;98965.03;;;14.01;100.00
10921;BME280;5513;50.580;8.818;2023-08-07T09:32:18;98962.59;;;14.10;100.00
10921;BME280;5513;50.580;8.818;2023-08-07T09:35:08;98960.00;;;14.19;100.00
10921;BME280;5513;50.580;8.818;2023-08-07T09:37:56;98955.84;;;14.26;100.00
10921;BME280;5513;50.580;8.818;2023-08-07T09:40:43;98955.72;;;14.28;100.00
10921;BME280;5513;50.580;8.818;2023-08-07T09:43:33;98946.38;;;14.33;100.00
10921;BME280;5513;50.580;8.818;2023-08-07T09:46:21;98952.06;;;14.40;100.00
10921;BME280;5513;50.580;8.818;2023-08-07T09:49:08;98955.69;;;14.50;100.00
10921;BME280;5513;50.580;8.818;2023-08-07T09:51:55;98950.56;;;14.58;100.00
10921;BME280;5513;50.580;8.818;2023-08-07T09:54:42;98968.59;;;14.55;100.00
10921;BME280;5513;50.580;8.818;2023-08-07T09:57:29;98958.44;;;14.60;100.00
10921;BME280;5513;50.580;8.818;2023-08-07T10:00:18;98957.72;;;14.79;100.00
10921;BME280;5513;50.580;8.818;2023-08-07T10:03:07;98960.63;;;15.17;100.00
10921;BME280;5513;50.580;8.818;2023-08-07T10:05:55;98950.00;;;15.27;100.00
10921;BME280;5513;50.580;8.818;2023-08-07T10:08:43;98936.44;;;15.09;100.00
10921;BME280;5513;50.580;8.818;2023-08-07T10:11:31;98947.06;;;15.30;100.00
10921;BME280;5513;50.580;8.818;2023-08-07T10:14:18;98948.66;;;15.63;100.00
10921;BME280;5513;50.580;8.818;2023-08-07T10:17:05;98954.56;;;15.67;100.00
10921;BME280;5513;50.580;8.818;2023-08-07T10:19:56;98948.84;;;15.51;100.00
10921;BME280;5513;50.580;8.818;2023-08-07T10:22:43;98946.00;;;15.42;100.00
10921;BME280;5513;50.580;8.818;2023-08-07T10:25:31;98938.53;;;15.67;100.00
10921;BME280;5513;50.580;8.818;2023-08-07T10:28:19;98935.19;;;15.74;100.00
10921;BME280;5513;50.580;8.818;2023-08-07T10:31:06;98956.78;;;15.62;100.00
10921;BME280;5513;50.580;8.818;2023-08-07T10:33:54;98954.63;;;15.56;100.00
10921;BME280;5513;50.580;8.818;2023-08-07T10:36:42;98951.19;;;15.65;100.00
10921;BME280;5513;50.580;8.818;2023-08-07T10:39:29;98953.00;;;15.64;100.00
10921;BME280;5513;50.580;8.818;2023-08-07T10:42:16;98956.66;;;15.63;100.00
10921;BME280;5513;50.580;8.818;2023-08-07T10:45:05;98956.28;;;15.78;100.00
10921;BME280;5513;50.580;8.818;2023-08-07T10:48:02;98955.44;;;15.77;100.00
10921;BME280;5513;50.580;8.818;2023-08-07T10:50:56;98958.56;;;16.01;100.00
10921;BME280;5513;50.580;8.818;2023-08-07T10:53:47;98947.22;;;16.19;100.00
10921;BME280;5513;50.580;8.818;2023-08-07T10:56:36;98942.31;;;16.24;100.00
10921;BME280;5513;50.580;8.818;2023-08-07T10:59:24;98928.25;;;16.51;100.00
10921;BME280;5513;50.580;8.818;2023-08-07T11:02:12;98936.28;;;16.51;100.00
10921;BME280;5513;50.580;8.818;2023-08-07T11:04:59;98946.13;;;16.41;100.00
10921;BME280;5513;50.580;8.818;2023-08-07T11:07:46;98943.00;;;16.94;100.00
10921;BME280;5513;50.580;8.818;2023-08-07T11:10:34;98941.34;;;16.83;100.00
10921;BME280;5513;50.580;8.818;2023-08-07T11:13:21;98946.34;;;17.05;100.00
10921;BME280;5513;50.580;8.818;2023-08-07T11:16:08;98940.75;;;17.08;100.00
10921;BME280;5513;50.580;8.818;2023-08-07T11:18:56;98938.94;;;16.90;100.00
10921;BME280;5513;50.580;8.818;2023-08-07T11:21:43;98941.03;;;16.67;100.00
10921;BME280;5513;50.580;8.818;2023-08-07T11:24:30;98945.41;;;16.48;100.00
10921;BME280;5513;50.580;8.818;2023-08-07T11:27:20;98952.72;;;16.46;100.00
10921;BME280;5513;50.580;8.818;2023-08-07T11:30:11;98954.00;;;16.62;100.00
10921;BME280;5513;50.580;8.818;2023-08-07T11:32:58;98951.59;;;16.87;100.00
10921;BME280;5513;50.580;8.818;2023-08-07T11:35:47;98966.66;;;16.98;100.00
10921;BME280;5513;50.580;8.818;2023-08-07T11:38:36;98951.31;;;17.00;100.00
10921;BME280;5513;50.580;8.818;2023-08-07T11:41:24;98955.44;;;17.32;100.00
10921;BME280;5513;50.580;8.818;2023-08-07T11:44:12;98951.22;;;17.39;100.00
10921;BME280;5513;50.580;8.818;2023-08-07T11:46:59;98956.06;;;17.90;100.00
10921;BME280;5513;50.580;8.818;2023-08-07T11:49:47;98939.28;;;18.87;100.00
10921;BME280;5513;50.580;8.818;2023-08-07T11:52:34;98938.03;;;20.76;100.00
10921;BME280;5513;50.580;8.818;2023-08-07T11:55:23;98941.06;;;22.85;100.00
10921;BME280;5513;50.580;8.818;2023-08-07T11:58:10;98931.78;;;23.55;99.73
10921;BME280;5513;50.580;8.818;2023-08-07T12:00:59;98927.34;;;23.25;96.44
10921;BME280;5513;50.580;8.818;2023-08-07T12:03:54;98934.47;;;22.65;99.30
10921;BME280;5513;50.580;8.818;2023-08-07T12:06:52;98926.06;;;20.71;100.00
10921;BME280;5513;50.580;8.818;2023-08-07T12:09:41;98937.41;;;19.65;100.00
10921;BME280;5513;50.580;8.818;2023-08-07T12:12:32;98946.22;;;18.62;100.00
10921;BME280;5513;50.580;8.818;2023-08-07T12:15:19;98964.50;;;18.76;100.00
10921;BME280;5513;50.580;8.818;2023-08-07T12:18:08;98958.94;;;18.07;100.00
10921;BME280;5513;50.580;8.818;2023-08-07T12:20:58;98948.03;;;17.90;100.00
10921;BME280;5513;50.580;8.818;2023-08-07T12:23:45;98952.66;;;19.31;100.00
10921;BME280;5513;50.580;8.818;2023-08-07T12:26:33;98951.03;;;19.12;100.00
10921;BME280;5513;50.580;8.818;2023-08-07T12:29:20;98967.16;;;18.58;100.00
10921;BME280;5513;50.580;8.818;2023-08-07T12:32:07;98972.72;;;17.57;100.00
10921;BME280;5513;50.580;8.818;2023-08-07T12:34:56;98987.81;;;17.48;100.00
10921;BME280;5513;50.580;8.818;2023-08-07T12:37:45;98982.59;;;19.62;100.00
10921;BME280;5513;50.580;8.818;2023-08-07T12:40:32;98973.97;;;22.12;100.00
10921;BME280;5513;50.580;8.818;2023-08-07T12:43:21;98978.13;;;23.82;98.47
10921;BME280;5513;50.580;8.818;2023-08-07T12:46:08;98968.00;;;22.17;99.37
10921;BME280;5513;50.580;8.818;2023-08-07T12:48:58;98966.94;;;21.39;100.00
10921;BME280;5513;50.580;8.818;2023-08-07T12:51:46;98966.09;;;22.79;100.00
10921;BME280;5513;50.580;8.818;2023-08-07T12:54:33;98975.34;;;23.08;100.00
10921;BME280;5513;50.580;8.818;2023-08-07T12:57:20;98957.97;;;23.40;87.44
10921;BME280;5513;50.580;8.818;2023-08-07T13:00:11;98960.41;;;24.30;75.45
10921;BME280;5513;50.580;8.818;2023-08-07T13:02:59;98966.94;;;25.71;68.19
10921;BME280;5513;50.580;8.818;2023-08-07T13:05:46;98957.97;;;25.70;66.01
10921;BME280;5513;50.580;8.818;2023-08-07T13:08:35;98956.19;;;23.47;71.10
10921;BME280;5513;50.580;8.818;2023-08-07T13:11:22;98957.88;;;23.48;78.79
10921;BME280;5513;50.580;8.818;2023-08-07T13:14:09;98955.81;;;24.09;73.01
10921;BME280;5513;50.580;8.818;2023-08-07T13:16:56;98956.63;;;24.82;68.47
10921;BME280;5513;50.580;8.818;2023-08-07T13:19:43;98949.09;;;25.27;61.26
10921;BME280;5513;50.580;8.818;2023-08-07T13:22:30;98963.06;;;21.89;74.04
10921;BME280;5513;50.580;8.818;2023-08-07T13:25:17;98954.75;;;21.52;81.87
10921;BME280;5513;50.580;8.818;2023-08-07T13:28:04;98970.41;;;22.66;79.39
10921;BME280;5513;50.580;8.818;2023-08-07T13:30:52;98962.72;;;21.92;81.36
10921;BME280;5513;50.580;8.818;2023-08-07T13:33:43;98966.94;;;20.50;93.83
10921;BME280;5513;50.580;8.818;2023-08-07T13:36:30;98974.56;;;19.44;100.00
10921;BME280;5513;50.580;8.818;2023-08-07T13:39:17;98994.84;;;18.14;100.00
10921;BME280;5513;50.580;8.818;2023-08-07T13:42:06;98999.22;;;17.97;100.00
10921;BME280;5513;50.580;8.818;2023-08-07T13:44:54;98997.69;;;17.85;100.00
10921;BME280;5513;50.580;8.818;2023-08-07T13:47:41;98998.63;;;17.93;100.00
10921;BME280;5513;50.580;8.818;2023-08-07T13:50:28;98994.28;;;18.65;100.00
10921;BME280;5513;50.580;8.818;2023-08-07T13:53:15;98984.44;;;19.17;100.00
10921;BME280;5513;50.580;8.818;2023-08-07T13:56:02;98990.63;;;19.96;100.00
10921;BME280;5513;50.580;8.818;2023-08-07T13:58:50;98983.94;;;20.75;100.00
10921;BME280;5513;50.580;8.818;2023-08-07T14:01:37;98989.38;;;22.26;90.62
10921;BME280;5513;50.580;8.818;2023-08-07T14:04:24;98978.09;;;24.83;68.81
10921;BME280;5513;50.580;8.818;2023-08-07T14:07:11;98988.09;;;27.44;57.01
10921;BME280;5513;50.580;8.818;2023-08-07T14:09:59;98983.59;;;28.92;47.26
10921;BME280;5513;50.580;8.818;2023-08-07T14:12:46;98989.78;;;27.51;51.66
10921;BME280;5513;50.580;8.818;2023-08-07T14:15:34;98972.34;;;27.79;48.43
10921;BME280;5513;50.580;8.818;2023-08-07T14:18:21;98974.13;;;28.11;48.66
10921;BME280;5513;50.580;8.818;2023-08-07T14:21:07;98979.13;;;29.90;46.63
10921;BME280;5513;50.580;8.818;2023-08-07T14:23:54;98985.50;;;29.66;45.38
10921;BME280;5513;50.580;8.818;2023-08-07T14:26:41;98990.00;;;30.34;43.70
10921;BME280;5513;50.580;8.818;2023-08-07T14:29:28;98981.81;;;29.29;41.03
10921;BME280;5513;50.580;8.818;2023-08-07T14:32:17;98990.25;;;30.14;38.71
10921;BME280;5513;50.580;8.818;2023-08-07T14:35:04;98989.97;;;29.11;38.43
10921;BME280;5513;50.580;8.818;2023-08-07T14:37:51;98988.28;;;27.75;41.33
10921;BME280;5513;50.580;8.818;2023-08-07T14:40:38;98983.91;;;27.48;42.29
10921;BME280;5513;50.580;8.818;2023-08-07T14:43:28;98989.75;;;27.58;41.65
10921;BME280;5513;50.580;8.818;2023-08-07T14:46:16;98992.50;;;25.89;46.57
10921;BME280;5513;50.580;8.818;2023-08-07T14:49:05;98990.28;;;24.51;52.24
10921;BME280;5513;50.580;8.818;2023-08-07T14:51:52;99003.00;;;24.21;55.31